createdAt,value
2016-10-25T00:00:28.916Z,21.44
2016-10-25T00:01:41.911Z,21.37
2016-10-25T00:02:54.956Z,21.32
2016-10-25T00:04:07.985Z,21.29
2016-10-25T00:05:21.465Z,21.32
2016-10-25T00:06:34.539Z,21.3
2016-10-25T00:07:48.176Z,21.18
2016-10-25T00:09:01.110Z,21.14
2016-10-25T00:10:14.056Z,21.1
2016-10-25T00:11:26.023Z,20.9
2016-10-25T00:12:39.051Z,20.95
2016-10-25T00:13:51.004Z,20.97
2016-10-25T00:15:04.534Z,20.9
2016-10-25T00:16:17.543Z,20.98
2016-10-25T00:17:31.099Z,20.83
2016-10-25T00:18:44.111Z,20.85
2016-10-25T00:19:57.095Z,20.86
2016-10-25T00:21:09.535Z,20.86
2016-10-25T00:22:21.513Z,20.89
2016-10-25T00:23:33.958Z,20.89
2016-10-25T00:24:46.967Z,20.86
2016-10-25T00:25:59.937Z,20.82
2016-10-25T00:27:12.931Z,20.77
2016-10-25T00:28:25.357Z,20.77
2016-10-25T00:29:38.930Z,20.86
2016-10-25T00:30:52.473Z,20.88
2016-10-25T00:32:05.970Z,20.89
2016-10-25T00:33:19.467Z,20.85
2016-10-25T00:34:31.384Z,20.85
2016-10-25T00:35:43.902Z,20.8
2016-10-25T00:36:56.387Z,20.85
2016-10-25T00:38:09.901Z,20.88
2016-10-25T00:39:22.949Z,20.89
2016-10-25T00:40:36.572Z,20.97
2016-10-25T00:41:47.962Z,20.93
2016-10-25T00:43:00.435Z,21.01
2016-10-25T00:44:13.979Z,20.85
2016-10-25T00:45:25.967Z,20.88
2016-10-25T00:46:38.410Z,20.85
2016-10-25T00:47:51.365Z,20.86
2016-10-25T00:49:04.327Z,20.89
2016-10-25T00:50:16.810Z,20.86
2016-10-25T00:51:28.779Z,20.85
2016-10-25T00:52:40.227Z,20.83
2016-10-25T00:53:53.739Z,20.85
2016-10-25T00:55:06.206Z,20.9
2016-10-25T00:56:19.722Z,20.88
2016-10-25T00:57:33.282Z,20.92
2016-10-25T00:58:46.279Z,20.9
2016-10-25T00:59:59.248Z,20.83
2016-10-25T01:01:12.263Z,20.95
2016-10-25T01:02:25.808Z,20.98
2016-10-25T01:03:38.857Z,21
2016-10-25T01:04:51.353Z,20.98
2016-10-25T01:06:04.348Z,21
2016-10-25T01:07:17.863Z,20.85
2016-10-25T01:08:31.440Z,20.8
2016-10-25T01:09:44.958Z,20.83
2016-10-25T01:10:57.428Z,20.86
2016-10-25T01:12:10.435Z,20.9
2016-10-25T01:13:22.354Z,20.83
2016-10-25T01:14:34.825Z,20.89
2016-10-25T01:15:48.410Z,20.88
2016-10-25T01:17:00.833Z,20.85
2016-10-25T01:18:12.773Z,20.88
2016-10-25T01:19:25.821Z,20.82
2016-10-25T01:20:38.860Z,21
2016-10-25T01:21:52.399Z,20.88
2016-10-25T01:23:05.463Z,20.97
2016-10-25T01:24:18.979Z,20.92
2016-10-25T01:25:32.481Z,20.92
2016-10-25T01:26:44.913Z,20.95
2016-10-25T01:27:57.403Z,20.86
2016-10-25T01:29:10.392Z,20.9
2016-10-25T01:30:23.380Z,20.97
2016-10-25T01:31:36.394Z,20.95
2016-10-25T01:32:49.394Z,20.89
2016-10-25T01:34:01.865Z,20.85
2016-10-25T01:35:14.348Z,20.85
2016-10-25T01:36:27.376Z,20.83
2016-10-25T01:37:40.288Z,20.88
2016-10-25T01:38:53.814Z,20.93
2016-10-25T01:40:07.354Z,20.97
2016-10-25T01:41:19.863Z,20.9
2016-10-25T01:42:33.392Z,21.04
2016-10-25T01:43:46.425Z,21.01
2016-10-25T01:44:59.460Z,20.95
2016-10-25T01:46:12.515Z,21.04
2016-10-25T01:47:26.089Z,21.03
2016-10-25T01:48:38.022Z,20.97
2016-10-25T01:49:50.016Z,20.95
2016-10-25T01:51:01.454Z,21.03
2016-10-25T01:52:13.885Z,21.04
2016-10-25T01:53:26.900Z,21.04
2016-10-25T01:54:39.331Z,21.03
2016-10-25T01:55:52.834Z,21
2016-10-25T01:57:06.416Z,20.98
2016-10-25T01:58:19.996Z,20.9
2016-10-25T02:00:30.856Z,20.97
2016-10-25T02:01:43.835Z,20.92
2016-10-25T02:02:56.315Z,20.85
2016-10-25T02:04:09.354Z,20.85
2016-10-25T02:05:22.343Z,20.9
2016-10-25T02:06:35.355Z,20.88
2016-10-25T02:07:48.367Z,20.83
2016-10-25T02:09:01.453Z,20.95
2016-10-25T02:10:13.440Z,20.83
2016-10-25T02:11:26.548Z,20.83
2016-10-25T02:12:40.076Z,20.86
2016-10-25T02:16:08.374Z,20.74
2016-10-25T02:17:21.501Z,20.75
2016-10-25T02:18:34.529Z,20.7
2016-10-25T02:19:47.092Z,20.67
2016-10-25T02:21:00.689Z,20.67
2016-10-25T02:22:13.238Z,20.75
2016-10-25T02:23:26.303Z,20.67
2016-10-25T02:24:38.817Z,20.71
2016-10-25T02:25:51.863Z,20.7
2016-10-25T02:27:05.484Z,20.71
2016-10-25T02:28:18.533Z,20.79
2016-10-25T02:29:31.515Z,20.71
2016-10-25T02:30:45.101Z,20.68
2016-10-25T02:31:58.162Z,20.67
2016-10-25T02:33:11.844Z,20.63
2016-10-25T02:34:24.386Z,20.71
2016-10-25T02:35:38.022Z,20.56
2016-10-25T02:36:51.127Z,20.58
2016-10-25T02:38:03.162Z,20.58
2016-10-25T02:39:15.660Z,20.53
2016-10-25T02:40:27.620Z,20.56
2016-10-25T02:41:41.204Z,20.58
2016-10-25T02:42:54.833Z,20.52
2016-10-25T02:44:07.930Z,20.58
2016-10-25T02:45:21.004Z,20.55
2016-10-25T02:46:33.552Z,20.56
2016-10-25T02:47:46.665Z,20.58
2016-10-25T02:48:59.690Z,20.61
2016-10-25T02:50:13.243Z,20.61
2016-10-25T02:51:26.864Z,20.63
2016-10-25T02:52:39.382Z,20.58
2016-10-25T02:53:52.435Z,20.68
2016-10-25T02:55:05.431Z,20.65
2016-10-25T02:56:19.146Z,20.61
2016-10-25T02:57:32.198Z,20.73
2016-10-25T02:58:45.265Z,20.67
2016-10-25T02:59:58.311Z,20.74
2016-10-25T03:01:11.395Z,20.73
2016-10-25T03:02:24.952Z,20.75
2016-10-25T03:03:38.058Z,20.77
2016-10-25T03:04:51.678Z,20.77
2016-10-25T03:06:05.318Z,20.82
2016-10-25T03:07:18.916Z,20.88
2016-10-25T03:08:31.447Z,20.88
2016-10-25T03:09:44.534Z,20.82
2016-10-25T03:10:57.091Z,20.85
2016-10-25T03:12:10.206Z,20.85
2016-10-25T03:13:23.931Z,20.75
2016-10-25T03:14:37.464Z,20.8
2016-10-25T03:15:50.580Z,20.75
2016-10-25T03:17:03.083Z,20.75
2016-10-25T03:18:16.684Z,20.79
2016-10-25T03:19:29.868Z,20.73
2016-10-25T03:20:42.958Z,20.79
2016-10-25T03:21:56.029Z,20.77
2016-10-25T03:23:09.034Z,20.77
2016-10-25T03:24:21.582Z,20.71
2016-10-25T03:25:35.168Z,20.68
2016-10-25T03:26:48.160Z,20.68
2016-10-25T03:28:01.170Z,20.65
2016-10-25T03:29:14.766Z,20.65
2016-10-25T03:30:57.182Z,20.73
2016-10-25T03:32:09.733Z,20.7
2016-10-25T03:33:22.823Z,20.65
2016-10-25T03:34:36.406Z,20.63
2016-10-25T03:35:49.975Z,20.55
2016-10-25T03:37:03.583Z,20.6
2016-10-25T03:38:15.059Z,20.7
2016-10-25T03:39:28.637Z,20.61
2016-10-25T03:40:41.733Z,20.6
2016-10-25T03:41:54.807Z,20.64
2016-10-25T03:43:07.888Z,20.67
2016-10-25T03:46:37.180Z,20.6
2016-10-25T03:47:49.665Z,20.65
2016-10-25T03:49:02.159Z,20.56
2016-10-25T03:50:15.254Z,20.55
2016-10-25T03:51:27.248Z,20.53
2016-10-25T03:52:40.253Z,20.49
2016-10-25T03:53:53.347Z,20.46
2016-10-25T03:55:06.859Z,20.5
2016-10-25T03:56:19.318Z,20.49
2016-10-25T03:57:32.304Z,20.49
2016-10-25T03:58:44.313Z,20.48
2016-10-25T03:59:57.861Z,20.49
2016-10-25T04:01:10.377Z,20.5
2016-10-25T04:02:22.865Z,20.52
2016-10-25T04:03:35.918Z,20.46
2016-10-25T04:04:47.898Z,20.46
2016-10-25T04:06:00.371Z,20.46
2016-10-25T04:07:12.799Z,20.5
2016-10-25T04:08:26.341Z,20.49
2016-10-25T04:09:39.386Z,20.49
2016-10-25T04:10:51.899Z,20.46
2016-10-25T04:12:05.005Z,20.46
2016-10-25T04:13:18.075Z,20.49
2016-10-25T04:14:30.565Z,20.37
2016-10-25T04:15:44.101Z,20.39
2016-10-25T04:16:57.709Z,20.39
2016-10-25T04:18:11.302Z,20.39
2016-10-25T04:19:24.917Z,20.37
2016-10-25T04:20:37.451Z,20.36
2016-10-25T04:21:50.496Z,20.34
2016-10-25T04:23:04.104Z,20.3
2016-10-25T04:24:17.138Z,20.37
2016-10-25T04:25:30.225Z,20.26
2016-10-25T04:26:43.814Z,20.26
2016-10-25T04:27:56.321Z,20.18
2016-10-25T04:29:09.418Z,20.18
2016-10-25T04:30:22.447Z,20.18
2016-10-25T04:31:35.088Z,20.22
2016-10-25T04:32:48.728Z,20.22
2016-10-25T04:34:01.793Z,20.22
2016-10-25T04:35:14.375Z,20.22
2016-10-25T04:36:26.963Z,20.23
2016-10-25T04:37:40.511Z,20.15
2016-10-25T04:38:54.076Z,20.17
2016-10-25T04:40:07.134Z,20.12
2016-10-25T04:41:20.169Z,20.14
2016-10-25T04:42:32.703Z,20.15
2016-10-25T04:43:46.330Z,20.15
2016-10-25T04:44:59.864Z,20.18
2016-10-25T04:46:12.935Z,20.11
2016-10-25T04:47:25.925Z,20.14
2016-10-25T04:48:38.919Z,20.22
2016-10-25T04:49:51.915Z,20.14
2016-10-25T04:51:04.401Z,20.15
2016-10-25T04:52:17.446Z,20.14
2016-10-25T04:53:30.451Z,20.14
2016-10-25T04:54:43.027Z,20.08
2016-10-25T04:55:56.592Z,20.12
2016-10-25T04:57:09.655Z,20.05
2016-10-25T04:58:22.175Z,20.12
2016-10-25T04:59:34.142Z,20.11
2016-10-25T05:00:47.733Z,20.08
2016-10-25T05:01:59.756Z,20.09
2016-10-25T05:03:12.239Z,20.12
2016-10-25T05:04:25.318Z,20.12
2016-10-25T05:05:38.384Z,20.11
2016-10-25T05:06:50.345Z,20.11
2016-10-25T05:08:03.466Z,20.08
2016-10-25T05:09:17.033Z,20.08
2016-10-25T05:10:30.103Z,20.12
2016-10-25T05:11:43.190Z,20.05
2016-10-25T05:12:55.783Z,20.14
2016-10-25T05:14:08.293Z,20.15
2016-10-25T05:15:20.857Z,20.17
2016-10-25T05:16:33.391Z,20.14
2016-10-25T05:17:45.343Z,20.12
2016-10-25T05:18:58.953Z,20.14
2016-10-25T05:20:12.024Z,20.07
2016-10-25T05:21:25.022Z,20.17
2016-10-25T05:22:38.135Z,20.05
2016-10-25T05:23:50.657Z,20.12
2016-10-25T05:25:04.286Z,20.19
2016-10-25T05:26:16.249Z,20.23
2016-10-25T05:27:29.261Z,20.18
2016-10-25T05:28:42.326Z,20.22
2016-10-25T05:29:54.790Z,20.25
2016-10-25T05:31:07.366Z,20.11
2016-10-25T05:32:20.942Z,20.17
2016-10-25T05:33:33.467Z,20.17
2016-10-25T05:34:47.018Z,20.17
2016-10-25T05:36:00.058Z,20.15
2016-10-25T05:37:13.630Z,20.09
2016-10-25T05:38:27.178Z,20.11
2016-10-25T05:39:40.822Z,20.11
2016-10-25T05:40:53.923Z,20.11
2016-10-25T05:42:07.490Z,20.08
2016-10-25T05:43:18.946Z,20.07
2016-10-25T05:44:32.552Z,20.04
2016-10-25T05:45:46.148Z,20.07
2016-10-25T05:46:59.236Z,19.97
2016-10-25T05:48:12.827Z,19.93
2016-10-25T05:49:25.385Z,19.93
2016-10-25T05:50:38.407Z,19.92
2016-10-25T05:51:51.927Z,19.93
2016-10-25T05:53:04.398Z,19.97
2016-10-25T05:54:18.005Z,19.99
2016-10-25T05:55:30.553Z,19.84
2016-10-25T05:56:43.634Z,19.96
2016-10-25T05:57:56.695Z,19.93
2016-10-25T05:59:10.227Z,19.9
2016-10-25T06:00:23.825Z,19.96
2016-10-25T06:01:36.396Z,19.92
2016-10-25T06:02:49.427Z,20.02
2016-10-25T06:04:02.446Z,19.92
2016-10-25T06:05:15.984Z,19.92
2016-10-25T06:06:28.487Z,19.87
2016-10-25T06:07:41.034Z,19.79
2016-10-25T06:08:54.107Z,19.87
2016-10-25T06:10:07.160Z,19.9
2016-10-25T06:11:19.164Z,19.9
2016-10-25T06:12:32.211Z,19.89
2016-10-25T06:13:45.233Z,19.92
2016-10-25T06:14:58.259Z,19.87
2016-10-25T06:16:11.311Z,19.93
2016-10-25T06:17:23.323Z,19.99
2016-10-25T06:18:36.910Z,19.93
2016-10-25T06:19:50.553Z,20.04
2016-10-25T06:21:03.108Z,20.04
2016-10-25T06:22:15.131Z,20.15
2016-10-25T06:23:27.747Z,20.11
2016-10-25T06:24:40.922Z,20.07
2016-10-25T06:25:53.453Z,20.18
2016-10-25T06:27:05.954Z,20.02
2016-10-25T06:28:18.451Z,20.08
2016-10-25T06:29:32.048Z,20.07
2016-10-25T06:30:44.573Z,20.02
2016-10-25T06:31:57.137Z,20.04
2016-10-25T06:33:10.709Z,20.11
2016-10-25T06:34:23.808Z,20.09
2016-10-25T06:35:36.850Z,20.05
2016-10-25T06:36:49.288Z,20.11
2016-10-25T06:38:02.854Z,20.12
2016-10-25T06:39:15.393Z,20.05
2016-10-25T06:40:27.934Z,19.96
2016-10-25T06:41:40.455Z,19.94
2016-10-25T06:42:53.554Z,19.87
2016-10-25T06:44:06.111Z,19.82
2016-10-25T06:45:19.182Z,19.89
2016-10-25T06:46:32.795Z,19.79
2016-10-25T06:47:46.319Z,19.89
2016-10-25T06:48:59.316Z,19.82
2016-10-25T06:50:10.762Z,19.9
2016-10-25T06:51:24.362Z,19.94
2016-10-25T06:52:37.348Z,19.92
2016-10-25T06:53:50.378Z,19.89
2016-10-25T06:55:03.447Z,19.79
2016-10-25T06:56:15.937Z,19.72
2016-10-25T06:57:28.999Z,19.81
2016-10-25T06:58:42.066Z,19.86
2016-10-25T06:59:55.596Z,19.87
2016-10-25T07:01:08.684Z,19.81
2016-10-25T07:02:20.766Z,19.84
2016-10-25T07:03:34.387Z,19.81
2016-10-25T07:04:46.970Z,19.84
2016-10-25T07:06:00.609Z,19.82
2016-10-25T07:07:13.133Z,19.82
2016-10-25T07:08:25.645Z,19.79
2016-10-25T07:09:38.701Z,19.72
2016-10-25T07:10:51.226Z,19.81
2016-10-25T07:12:04.828Z,19.79
2016-10-25T07:13:17.861Z,19.84
2016-10-25T07:14:30.323Z,19.81
2016-10-25T07:15:42.350Z,19.62
2016-10-25T07:16:55.435Z,19.72
2016-10-25T07:18:07.927Z,19.67
2016-10-25T07:19:20.493Z,19.75
2016-10-25T07:20:34.085Z,19.7
2016-10-25T07:21:47.133Z,19.77
2016-10-25T07:23:00.698Z,19.75
2016-10-25T07:24:14.299Z,19.74
2016-10-25T07:25:26.784Z,19.67
2016-10-25T07:26:39.337Z,19.67
2016-10-25T07:27:52.430Z,19.62
2016-10-25T07:29:05.382Z,19.64
2016-10-25T07:30:17.378Z,19.62
2016-10-25T07:31:30.987Z,19.56
2016-10-25T07:32:42.468Z,19.62
2016-10-25T07:33:55.554Z,19.57
2016-10-25T07:35:09.130Z,19.63
2016-10-25T07:36:22.730Z,19.57
2016-10-25T07:37:35.819Z,19.64
2016-10-25T07:38:48.845Z,19.6
2016-10-25T07:40:02.420Z,19.53
2016-10-25T07:41:14.927Z,19.52
2016-10-25T07:42:27.473Z,19.5
2016-10-25T07:43:40.613Z,19.49
2016-10-25T07:44:53.666Z,19.45
2016-10-25T07:46:06.212Z,19.57
2016-10-25T07:47:18.792Z,19.49
2016-10-25T07:48:31.827Z,19.47
2016-10-25T07:49:44.343Z,19.49
2016-10-25T07:50:57.367Z,19.42
2016-10-25T07:52:09.888Z,19.49
2016-10-25T07:53:22.945Z,19.45
2016-10-25T07:54:35.382Z,19.41
2016-10-25T07:55:47.922Z,19.45
2016-10-25T07:57:00.658Z,19.45
2016-10-25T07:58:14.291Z,19.44
2016-10-25T07:59:27.878Z,19.41
2016-10-25T08:00:40.845Z,19.35
2016-10-25T08:01:52.866Z,19.39
2016-10-25T08:03:06.439Z,19.42
2016-10-25T08:04:19.425Z,19.39
2016-10-25T08:05:32.424Z,19.38
2016-10-25T08:06:45.456Z,19.41
2016-10-25T08:07:58.001Z,19.42
2016-10-25T08:09:11.013Z,19.45
2016-10-25T08:10:23.519Z,19.32
2016-10-25T08:11:37.114Z,19.45
2016-10-25T08:12:50.224Z,19.42
2016-10-25T08:14:03.991Z,19.32
2016-10-25T08:15:16.019Z,19.37
2016-10-25T08:16:29.074Z,19.35
2016-10-25T08:17:41.536Z,19.34
2016-10-25T08:18:55.106Z,19.32
2016-10-25T08:20:07.640Z,19.31
2016-10-25T08:21:20.214Z,19.34
2016-10-25T08:22:33.195Z,19.34
2016-10-25T08:23:45.767Z,19.3
2016-10-25T08:24:58.816Z,19.34
2016-10-25T08:26:11.421Z,19.41
2016-10-25T08:27:24.444Z,19.39
2016-10-25T08:28:38.012Z,19.34
2016-10-25T08:29:50.525Z,19.45
2016-10-25T08:31:03.615Z,19.45
2016-10-25T08:32:15.604Z,19.5
2016-10-25T08:33:29.177Z,19.5
2016-10-25T08:34:41.116Z,19.39
2016-10-25T08:35:54.710Z,19.5
2016-10-25T08:37:08.317Z,19.45
2016-10-25T08:38:21.870Z,19.52
2016-10-25T08:39:34.953Z,19.47
2016-10-25T08:40:47.401Z,19.49
2016-10-25T08:41:59.367Z,19.5
2016-10-25T08:43:12.410Z,19.5
2016-10-25T08:44:26.001Z,19.53
2016-10-25T08:45:38.992Z,19.52
2016-10-25T08:46:51.035Z,19.5
2016-10-25T08:48:03.012Z,19.5
2016-10-25T08:49:15.070Z,19.57
2016-10-25T08:50:28.670Z,19.54
2016-10-25T08:51:41.714Z,19.5
2016-10-25T08:52:55.280Z,19.54
2016-10-25T08:54:08.352Z,19.59
2016-10-25T08:55:20.423Z,19.64
2016-10-25T08:56:34.087Z,19.64
2016-10-25T08:57:47.698Z,19.68
2016-10-25T08:59:00.739Z,19.59
2016-10-25T09:00:13.821Z,19.7
2016-10-25T09:01:27.439Z,19.64
2016-10-25T09:02:41.063Z,19.59
2016-10-25T09:03:54.611Z,19.62
2016-10-25T09:05:07.629Z,19.6
2016-10-25T09:06:20.140Z,19.59
2016-10-25T09:07:33.667Z,19.62
2016-10-25T09:08:47.250Z,19.64
2016-10-25T09:10:00.786Z,19.62
2016-10-25T09:11:13.912Z,19.64
2016-10-25T09:12:27.488Z,19.64
2016-10-25T09:13:40.075Z,19.6
2016-10-25T09:14:53.641Z,19.7
2016-10-25T09:16:05.140Z,19.72
2016-10-25T09:17:18.754Z,19.71
2016-10-25T09:18:31.807Z,19.72
2016-10-25T09:19:45.357Z,19.74
2016-10-25T09:20:57.898Z,19.74
2016-10-25T09:22:10.941Z,19.75
2016-10-25T09:23:24.540Z,19.6
2016-10-25T09:24:38.117Z,19.7
2016-10-25T09:25:51.804Z,19.68
2016-10-25T09:27:04.309Z,19.68
2016-10-25T09:28:17.317Z,19.75
2016-10-25T09:29:30.398Z,19.74
2016-10-25T09:30:44.021Z,19.79
2016-10-25T09:31:55.972Z,19.75
2016-10-25T09:33:07.981Z,19.72
2016-10-25T09:34:21.089Z,19.74
2016-10-25T09:35:34.725Z,19.77
2016-10-25T09:36:47.757Z,19.64
2016-10-25T09:38:00.792Z,19.75
2016-10-25T09:39:13.375Z,19.75
2016-10-25T09:40:26.434Z,19.77
2016-10-25T09:41:39.478Z,19.78
2016-10-25T09:42:51.961Z,19.77
2016-10-25T09:44:04.520Z,19.86
2016-10-25T09:45:17.077Z,19.77
2016-10-25T09:46:30.140Z,19.86
2016-10-25T09:47:42.153Z,19.84
2016-10-25T09:48:55.123Z,19.86
2016-10-25T09:50:08.169Z,19.84
2016-10-25T09:51:21.752Z,19.81
2016-10-25T09:52:34.821Z,19.86
2016-10-25T09:53:47.861Z,19.89
2016-10-25T09:55:01.458Z,19.92
2016-10-25T09:56:14.062Z,19.87
2016-10-25T09:57:27.067Z,19.82
2016-10-25T09:58:39.580Z,19.93
2016-10-25T09:59:52.634Z,19.92
2016-10-25T10:01:06.186Z,19.94
2016-10-25T10:02:19.167Z,19.93
2016-10-25T10:03:32.753Z,19.96
2016-10-25T10:04:46.319Z,19.94
2016-10-25T10:05:58.928Z,19.97
2016-10-25T10:07:11.941Z,19.94
2016-10-25T10:08:25.531Z,20.02
2016-10-25T10:09:38.028Z,20.07
2016-10-25T10:10:51.025Z,20.05
2016-10-25T10:12:03.495Z,20.11
2016-10-25T10:13:15.996Z,20.18
2016-10-25T10:14:28.103Z,20.17
2016-10-25T10:15:41.144Z,20.19
2016-10-25T10:16:53.614Z,20.18
2016-10-25T10:18:05.627Z,20.18
2016-10-25T10:19:17.636Z,20.15
2016-10-25T10:20:30.703Z,20.22
2016-10-25T10:21:43.758Z,20.3
2016-10-25T10:22:56.321Z,20.29
2016-10-25T10:24:09.391Z,20.44
2016-10-25T10:25:21.854Z,20.46
2016-10-25T10:26:34.915Z,20.52
2016-10-25T10:27:48.457Z,20.58
2016-10-25T10:29:01.485Z,20.64
2016-10-25T10:30:14.541Z,20.77
2016-10-25T10:31:27.588Z,20.77
2016-10-25T10:32:41.244Z,20.8
2016-10-25T10:33:54.334Z,20.88
2016-10-25T10:35:07.946Z,20.93
2016-10-25T10:36:21.139Z,21
2016-10-25T10:37:34.712Z,21.01
2016-10-25T10:38:47.743Z,21.01
2016-10-25T10:39:59.219Z,20.93
2016-10-25T10:41:12.279Z,20.93
2016-10-25T10:42:25.283Z,21
2016-10-25T10:43:37.825Z,20.95
2016-10-25T10:44:49.771Z,21
2016-10-25T10:46:03.321Z,20.93
2016-10-25T10:47:16.405Z,20.95
2016-10-25T10:48:30.007Z,21.01
2016-10-25T10:49:43.087Z,21.13
2016-10-25T10:50:56.136Z,21.16
2016-10-25T10:52:09.213Z,21.16
2016-10-25T10:53:22.264Z,21.32
2016-10-25T10:54:34.728Z,21.34
2016-10-25T10:55:47.726Z,21.35
2016-10-25T10:57:00.740Z,21.26
2016-10-25T10:58:14.289Z,21.26
2016-10-25T10:59:27.863Z,21.19
2016-10-25T11:00:41.476Z,21.3
2016-10-25T11:01:54.055Z,21.14
2016-10-25T11:03:07.665Z,21.2
2016-10-25T11:04:21.291Z,21.22
2016-10-25T11:05:33.828Z,21.19
2016-10-25T11:06:46.427Z,21.13
2016-10-25T11:07:59.474Z,21.23
2016-10-25T11:09:12.004Z,21.19
2016-10-25T11:10:25.612Z,21.16
2016-10-25T11:11:39.182Z,21.13
2016-10-25T11:12:52.828Z,21.16
2016-10-25T11:14:05.406Z,21.16
2016-10-25T11:15:18.998Z,21.14
2016-10-25T11:16:32.552Z,21.18
2016-10-25T11:17:46.110Z,21.04
2016-10-25T11:18:59.116Z,21.04
2016-10-25T11:20:12.177Z,21.03
2016-10-25T11:21:24.764Z,21.04
2016-10-25T11:22:37.764Z,21
2016-10-25T11:23:50.836Z,21.04
2016-10-25T11:25:03.905Z,21.03
2016-10-25T11:26:16.458Z,21
2016-10-25T11:27:29.541Z,21
2016-10-25T11:28:42.626Z,21.16
2016-10-25T11:29:55.729Z,21.13
2016-10-25T11:31:09.449Z,21.16
2016-10-25T11:32:23.017Z,21.26
2016-10-25T11:33:36.093Z,21.28
2016-10-25T11:34:49.159Z,21.32
2016-10-25T11:36:02.163Z,21.32
2016-10-25T11:37:14.728Z,21.3
2016-10-25T11:38:27.326Z,21.37
2016-10-25T11:39:40.919Z,21.37
2016-10-25T11:40:54.491Z,21.41
2016-10-25T11:42:08.069Z,21.47
2016-10-25T11:43:20.585Z,21.44
2016-10-25T11:44:33.144Z,21.48
2016-10-25T11:45:46.684Z,21.43
2016-10-25T11:46:59.265Z,21.43
2016-10-25T11:48:11.757Z,21.3
2016-10-25T11:49:24.827Z,21.3
2016-10-25T11:50:37.999Z,21.3
2016-10-25T11:51:51.689Z,21.34
2016-10-25T11:53:05.335Z,21.43
2016-10-25T11:54:18.339Z,21.47
2016-10-25T11:55:31.341Z,21.38
2016-10-25T11:56:44.233Z,21.41
2016-10-25T11:57:57.270Z,21.44
2016-10-25T11:59:10.366Z,21.47
2016-10-25T12:00:23.995Z,21.5
2016-10-25T12:01:37.554Z,21.47
2016-10-25T12:02:51.167Z,21.5
2016-10-25T12:04:35.286Z,21.58
2016-10-25T12:05:48.357Z,21.55
2016-10-25T12:07:00.385Z,21.6
2016-10-25T12:08:12.970Z,21.55
2016-10-25T12:09:26.541Z,21.65
2016-10-25T12:10:39.026Z,21.67
2016-10-25T12:11:52.060Z,21.75
2016-10-25T12:13:05.632Z,21.81
2016-10-25T12:14:18.605Z,21.9
2016-10-25T12:15:31.663Z,21.98
2016-10-25T12:16:45.215Z,22.01
2016-10-25T12:17:58.827Z,22.03
2016-10-25T12:19:12.413Z,22.06
2016-10-25T12:20:25.478Z,22
2016-10-25T12:21:39.107Z,22.16
2016-10-25T12:22:52.197Z,22.12
2016-10-25T12:24:05.225Z,22.09
2016-10-25T12:25:18.259Z,22.07
2016-10-25T12:26:30.783Z,22.03
2016-10-25T12:27:43.292Z,22.06
2016-10-25T12:28:56.898Z,22.06
2016-10-25T12:30:09.992Z,22.01
2016-10-25T12:31:23.658Z,22.01
2016-10-25T12:32:36.156Z,21.97
2016-10-25T12:33:48.633Z,21.96
2016-10-25T12:35:00.642Z,21.98
2016-10-25T12:36:13.677Z,21.93
2016-10-25T12:37:27.234Z,21.84
2016-10-25T12:38:40.826Z,21.8
2016-10-25T12:39:53.949Z,21.73
2016-10-25T12:41:07.529Z,21.65
2016-10-25T12:42:20.638Z,21.47
2016-10-25T12:43:34.150Z,21.44
2016-10-25T12:44:47.193Z,21.3
2016-10-25T12:46:00.827Z,21.22
2016-10-25T12:47:13.857Z,21.26
2016-10-25T12:48:26.964Z,21.3
2016-10-25T12:49:39.494Z,21.28
2016-10-25T12:50:52.020Z,21.3
2016-10-25T12:52:05.529Z,21.37
2016-10-25T12:53:18.039Z,21.4
2016-10-25T12:54:30.014Z,21.38
2016-10-25T12:55:43.142Z,21.45
2016-10-25T12:56:56.709Z,21.47
2016-10-25T12:58:10.314Z,21.41
2016-10-25T12:59:23.914Z,21.44
2016-10-25T13:00:36.941Z,21.4
2016-10-25T13:01:50.481Z,21.34
2016-10-25T13:03:04.053Z,21.44
2016-10-25T13:04:17.093Z,21.38
2016-10-25T13:05:30.704Z,21.4
2016-10-25T13:06:42.716Z,21.41
2016-10-25T13:07:56.306Z,21.3
2016-10-25T13:09:09.333Z,21.28
2016-10-25T13:10:21.889Z,21.44
2016-10-25T13:11:34.907Z,21.44
2016-10-25T13:12:47.420Z,21.44
2016-10-25T13:14:00.489Z,21.5
2016-10-25T13:15:13.505Z,21.53
2016-10-25T13:16:27.052Z,21.59
2016-10-25T13:17:40.673Z,21.56
2016-10-25T13:18:54.280Z,21.4
2016-10-25T13:20:06.335Z,21.5
2016-10-25T13:21:19.938Z,21.44
2016-10-25T13:22:33.503Z,21.53
2016-10-25T13:23:46.050Z,21.48
2016-10-25T13:24:58.549Z,21.51
2016-10-25T13:26:11.076Z,21.43
2016-10-25T13:27:24.087Z,21.48
2016-10-25T13:28:37.164Z,21.55
2016-10-25T13:29:49.208Z,21.56
2016-10-25T13:31:02.245Z,21.5
2016-10-25T13:32:15.806Z,21.53
2016-10-25T13:33:28.871Z,21.58
2016-10-25T13:34:41.368Z,21.62
2016-10-25T13:35:54.940Z,21.62
2016-10-25T13:37:08.019Z,21.74
2016-10-25T13:38:20.563Z,21.8
2016-10-25T13:39:34.201Z,21.8
2016-10-25T13:40:46.696Z,21.96
2016-10-25T13:41:59.728Z,21.93
2016-10-25T13:43:13.308Z,21.97
2016-10-25T13:44:26.417Z,22.04
2016-10-25T13:45:40.030Z,22.06
2016-10-25T13:46:53.068Z,22.07
2016-10-25T13:48:05.567Z,22.06
2016-10-25T13:49:18.139Z,22.04
2016-10-25T13:50:30.668Z,22.07
2016-10-25T13:51:43.717Z,22.09
2016-10-25T13:52:57.237Z,22.01
2016-10-25T13:54:09.711Z,22.04
2016-10-25T13:55:23.245Z,22.19
2016-10-25T13:56:36.299Z,22.06
2016-10-25T13:57:49.336Z,22.11
2016-10-25T13:59:02.938Z,22.06
2016-10-25T14:00:16.014Z,22.07
2016-10-25T14:01:29.132Z,22.11
2016-10-25T14:02:42.226Z,22.15
2016-10-25T14:03:55.231Z,22.16
2016-10-25T14:05:08.318Z,22.12
2016-10-25T14:06:20.880Z,22.04
2016-10-25T14:07:34.437Z,22.06
2016-10-25T14:08:47.997Z,22.07
2016-10-25T14:10:01.027Z,22.11
2016-10-25T14:11:14.576Z,22.16
2016-10-25T14:12:28.139Z,22.33
2016-10-25T14:13:40.668Z,22.31
2016-10-25T14:14:53.817Z,22.48
2016-10-25T14:16:06.412Z,22.48
2016-10-25T14:17:18.979Z,22.66
2016-10-25T14:18:32.515Z,22.58
2016-10-25T14:19:46.139Z,22.71
2016-10-25T14:20:59.696Z,22.67
2016-10-25T14:22:12.727Z,22.68
2016-10-25T14:23:26.307Z,22.66
2016-10-25T14:24:39.369Z,22.76
2016-10-25T14:25:52.489Z,22.8
2016-10-25T14:27:04.983Z,22.91
2016-10-25T14:28:18.544Z,22.89
2016-10-25T14:29:31.616Z,22.96
2016-10-25T14:30:44.645Z,22.93
2016-10-25T14:31:57.724Z,23.07
2016-10-25T14:33:11.284Z,23.08
2016-10-25T14:34:23.817Z,23.18
2016-10-25T14:35:36.357Z,23.23
2016-10-25T14:36:49.407Z,23.21
2016-10-25T14:38:02.504Z,23.44
2016-10-25T14:39:15.053Z,23.41
2016-10-25T14:40:27.521Z,23.44
2016-10-25T14:41:40.034Z,23.36
2016-10-25T14:42:52.100Z,23.36
2016-10-25T14:44:05.105Z,23.21
2016-10-25T14:45:17.620Z,23.23
2016-10-25T14:46:30.685Z,23.13
2016-10-25T14:47:43.758Z,23.25
2016-10-25T14:48:56.801Z,23.1
2016-10-25T14:50:08.809Z,23.08
2016-10-25T14:51:21.871Z,23.1
2016-10-25T14:52:34.956Z,22.98
2016-10-25T14:53:48.026Z,23.04
2016-10-25T14:55:01.554Z,22.85
2016-10-25T14:56:14.581Z,22.91
2016-10-25T14:57:27.123Z,22.88
2016-10-25T14:58:40.284Z,22.76
2016-10-25T14:59:53.321Z,22.68
2016-10-25T15:01:06.605Z,22.66
2016-10-25T15:02:19.403Z,22.64
2016-10-25T15:03:32.456Z,22.61
2016-10-25T15:04:46.012Z,22.64
2016-10-25T15:05:58.513Z,22.53
2016-10-25T15:07:11.551Z,22.48
2016-10-25T15:08:24.590Z,22.48
2016-10-25T15:09:36.584Z,22.44
2016-10-25T15:10:50.224Z,22.37
2016-10-25T15:12:03.276Z,22.19
2016-10-25T15:13:16.398Z,22.22
2016-10-25T15:14:29.469Z,22.13
2016-10-25T15:15:40.901Z,22.13
2016-10-25T15:16:54.445Z,22.16
2016-10-25T15:18:06.984Z,22.01
2016-10-25T15:19:20.506Z,22.06
2016-10-25T15:20:33.622Z,22.06
2016-10-25T15:21:47.183Z,22.13
2016-10-25T15:22:59.785Z,22.07
2016-10-25T15:24:12.857Z,22.12
2016-10-25T15:25:26.361Z,22.06
2016-10-25T15:26:39.920Z,21.93
2016-10-25T15:27:53.019Z,21.94
2016-10-25T15:29:06.604Z,21.91
2016-10-25T15:30:19.593Z,21.91
2016-10-25T15:31:31.571Z,21.85
2016-10-25T15:32:44.550Z,21.85
2016-10-25T15:33:57.684Z,21.9
2016-10-25T15:35:10.724Z,21.91
2016-10-25T15:36:23.230Z,21.94
2016-10-25T15:37:35.755Z,22.06
2016-10-25T15:38:47.197Z,22.06
2016-10-25T15:39:59.771Z,22.04
2016-10-25T15:41:12.338Z,21.97
2016-10-25T15:42:25.917Z,21.9
2016-10-25T15:43:39.008Z,21.78
2016-10-25T15:44:52.574Z,21.81
2016-10-25T15:46:05.661Z,21.77
2016-10-25T15:47:18.708Z,21.75
2016-10-25T15:48:31.209Z,21.94
2016-10-25T15:49:43.675Z,21.97
2016-10-25T15:50:56.129Z,22.03